Skip Navigation Links
NOAA logo - Click to go to the NOAA homepage
NOAA's National Weather Service
Alaska Aviation Weather Unit
  NWS logo - Click to go to the NWS homepage
Left Navbar Graphic     22 AKDT = 06 GMT

   
NOAA is celebrating 200 years of science, service, and stewardship. Visit the NOAA 200th celebration Web site to learn more.
USA.gov is the U.S. Government's official Web portal to all Federal, state and local government Web resources and services.
Facebook
NWS on Facebook

Important Change Regarding the AAWU Web Presence

 

Over the last several months, the AAWU has been working to navigate its webpages to a nationally supported server. Security, as well as other needs, have necessitated the change.  In the process, we have made an effort to enhance the functionality of our website, as well as some of our products. As of June 20, 2017, aawu.arh.noaa.gov will be discontinued. The new AAWU web address is weather.gov/aawu. It is now live and will run in-parallel with the old site until it is discontinued. Please send any feedback or questions regarding the new webpages to nws.ar.aawu.webauthors@noaa.gov.  Thank you for your patience during this time of transition.
AAWU Home :: Display TAF Add Bookmark
METAR PANV 280016Z AUTO 22008G15KT 5SM FEW030 BKN039 BKN060 06/00 A2992
     RMK AO1=

METAR PANV 280036Z AUTO 16004KT 10SM BKN034 BKN042 OVC050 07/02
 A2992 RMK AO1=

METAR PANV 280056Z AUTO 12007KT 10SM SCT038 OVC050 08/02 A2991 RMK
     AO1=

METAR PANV 280116Z AUTO 14006KT 10SM FEW029 SCT036 BKN043 08/02
 A2991 RMK AO1=

METAR PANV 280136Z AUTO 14007KT 10SM FEW029 BKN044 BKN060 08/01 A2991
     RMK AO1=

METAR PANV 280156Z AUTO 15005KT 10SM BKN046 OVC050 08/02 A2991 RMK
     AO1=

METAR PANV 280216Z AUTO 15011KT 10SM FEW022 BKN046 OVC080 08/02 A2991
     RMK AO1=

METAR PANV 280236Z AUTO 17008KT 10SM FEW048 SCT070 08/02 A2991 RMK
     AO1=

METAR PANV 280256Z AUTO 14008KT 10SM SCT060 SCT070 BKN090 07/02 A2990
     RMK AO1 57007=

PANV 280316Z AUTO 12005KT 10SM FEW048 SCT060 BKN070 07/02 A2990
     RMK AO1=

METAR PANV 280336Z AUTO 12005KT 10SM FEW070 07/01 A2990 RMK AO1=

METAR PANV 280356Z AUTO 13005KT 10SM CLR 08/01 A2990 RMK AO1=

METAR PANV 280416Z AUTO 11004KT 10SM CLR 08/01 A2989 RMK AO1=

METAR PANV 280436Z AUTO 11003KT 10SM CLR 08/01 A2989 RMK AO1=

METAR PANV 280456Z AUTO 15007KT 10SM CLR 09/01 A2989 RMK AO1=

METAR PANV 280516Z AUTO 12006KT 10SM SCT038 SCT060 BKN070 08/01
 A2990 RMK AO1=

METAR PANV 280536Z AUTO 13007KT 10SM SCT040 BKN070 08/00 A2990 RMK
     AO1=

METAR PANV 280556Z AUTO 15007KT 10SM SCT100 08/01 A2990 RMK AO1 10090
 20060 54000=

METAR PANV 280616Z AUTO 14007KT 10SM CLR 08/01 A2989 RMK AO1=


NOAA's National Weather Service
Alaska Aviation Weather Unit
6930 Sand Lake Road
Anchorage, AK 99502-1845
Disclaimer
Credits
Glossary
Privacy Policy
About Us
Career Opportunities
Contact AAWU Internet Services Site last modified: April, 17th 2012